Time;durP1;ratioP1;P1;durP2;ratioP2;P2;SDS_P1;SDS_P2;PMS_P1;PMS_P2;Temp;Humidity;BMP_temperature;BMP_pressure;BME280_temperature;BME280_humidity;BME280_pressure;Samples;Min_cycle;Max_cycle;Signal;HPM_P1;HPM_P2
2022/09/13 00:00:40;;;;;;;24.27;21.80;;;17.30;99.90;;;;;;5096555;27;20052;-47
2022/09/13 00:03:08;;;;;;;22.63;20.23;;;17.30;99.90;;;;;;5096149;28;20495;-57
2022/09/13 00:05:36;;;;;;;21.08;19.02;;;17.20;99.90;;;;;;5096354;28;20047;-58
2022/09/13 00:08:03;;;;;;;21.45;19.17;;;17.20;99.90;;;;;;5096469;28;20047;-58
2022/09/13 00:10:31;;;;;;;22.95;20.58;;;17.30;99.90;;;;;;5092315;28;20078;-44
2022/09/13 00:12:57;;;;;;;22.33;19.95;;;17.30;99.90;;;;;;5096191;28;20060;-47
2022/09/13 00:15:23;;;;;;;23.08;20.80;;;17.30;99.90;;;;;;5096036;28;20048;-46
2022/09/13 00:17:49;;;;;;;22.73;20.35;;;17.30;99.90;;;;;;5097638;28;20051;-58
2022/09/13 00:20:15;;;;;;;25.35;22.83;;;17.30;99.90;;;;;;5094552;27;20388;-58
2022/09/13 00:22:41;;;;;;;22.92;20.52;;;17.30;99.90;;;;;;5096645;28;20627;-58
2022/09/13 00:25:08;;;;;;;23.85;21.35;;;17.30;99.90;;;;;;5081745;28;20130;-58
2022/09/13 00:27:35;;;;;;;24.55;22.00;;;17.30;99.90;;;;;;5097061;28;20513;-59
2022/09/13 00:30:04;;;;;;;25.17;21.88;;;17.30;99.90;;;;;;5077125;27;20109;-58
2022/09/13 00:32:30;;;;;;;25.75;22.70;;;17.30;99.90;;;;;;5096911;28;20058;-58
2022/09/13 00:34:57;;;;;;;24.77;21.45;;;17.30;99.90;;;;;;5097123;28;20043;-58
2022/09/13 00:37:23;;;;;;;23.60;21.13;;;17.30;99.90;;;;;;5097685;28;20497;-61
2022/09/13 00:39:49;;;;;;;23.80;21.25;;;17.30;99.90;;;;;;5062474;28;20039;-58
2022/09/13 00:42:15;;;;;;;25.65;22.98;;;17.30;99.90;;;;;;5093703;27;20051;-50
2022/09/13 00:45:02;;;;;;;27.30;24.50;;;17.30;99.90;;;;;;5096406;28;20122;-50
2022/09/13 00:47:28;;;;;;;27.92;24.88;;;17.30;99.90;;;;;;5096520;28;20632;-51
2022/09/13 00:50:17;;;;;;;26.60;23.70;;;17.30;99.90;;;;;;5075367;28;20052;-45
2022/09/13 00:52:48;;;;;;;25.30;22.58;;;17.30;99.90;;;;;;5091683;28;20051;-49
2022/09/13 00:55:48;;;;;;;25.20;22.70;;;17.20;99.90;;;;;;5096684;28;20094;-49
2022/09/13 00:58:21;;;;;;;26.73;23.85;;;17.30;99.90;;;;;;5065147;28;20047;-50
2022/09/13 01:00:48;;;;;;;26.77;23.92;;;17.30;99.90;;;;;;5092718;27;20556;-57
2022/09/13 01:03:16;;;;;;;30.65;24.88;;;17.30;99.90;;;;;;5092661;27;20128;-45
2022/09/13 01:05:47;;;;;;;26.15;23.58;;;17.30;99.90;;;;;;5092479;27;20059;-45
2022/09/13 01:08:24;;;;;;;26.98;24.17;;;17.20;99.90;;;;;;5093677;28;20044;-48
2022/09/13 01:10:51;;;;;;;26.95;24.08;;;17.30;99.90;;;;;;5093147;27;20473;-47
2022/09/13 01:13:22;;;;;;;26.83;23.83;;;17.20;99.90;;;;;;5097015;27;20499;-49
2022/09/13 01:15:49;;;;;;;26.48;23.58;;;17.20;99.90;;;;;;5091488;28;20153;-45
2022/09/13 01:18:15;;;;;;;28.65;25.02;;;17.20;99.90;;;;;;5095510;28;20059;-48
2022/09/13 01:20:44;;;;;;;24.77;22.38;;;17.20;99.90;;;;;;5078322;28;20044;-45
2022/09/13 01:23:59;;;;;;;24.50;21.85;;;17.10;99.90;;;;;;5090745;27;20141;-47
2022/09/13 01:26:40;;;;;;;29.35;23.80;;;17.10;99.90;;;;;;5093101;28;20062;-47
2022/09/13 01:29:34;;;;;;;28.83;25.13;;;17.00;99.90;;;;;;5062445;28;20052;-50
2022/09/13 01:32:06;;;;;;;26.35;22.73;;;17.10;99.90;;;;;;5112189;27;20051;-48
2022/09/13 01:35:04;;;;;;;26.70;23.55;;;17.00;99.90;;;;;;5074990;28;20124;-51
2022/09/13 01:37:54;;;;;;;26.67;23.55;;;17.00;99.90;;;;;;5095541;27;20647;-48
2022/09/13 01:40:53;;;;;;;28.80;25.02;;;17.00;99.90;;;;;;5094197;28;20048;-49
2022/09/13 01:43:22;;;;;;;26.85;23.73;;;17.00;99.90;;;;;;5071075;28;20047;-49
2022/09/13 01:46:05;;;;;;;31.85;25.98;;;17.00;99.90;;;;;;5092953;28;20055;-47
2022/09/13 01:48:53;;;;;;;27.70;24.90;;;17.00;99.90;;;;;;5073094;28;20831;-49
2022/09/13 01:51:58;;;;;;;26.98;23.80;;;17.00;99.90;;;;;;5091160;28;20891;-50
2022/09/13 01:54:27;;;;;;;27.40;24.35;;;17.00;99.90;;;;;;5057289;28;20055;-47
2022/09/13 01:57:27;;;;;;;30.17;25.13;;;17.00;99.90;;;;;;5076042;28;20448;-45
2022/09/13 02:00:01;;;;;;;31.98;27.08;;;17.00;99.90;;;;;;5093034;28;20058;-49
2022/09/13 02:02:56;;;;;;;30.70;26.02;;;17.00;99.90;;;;;;5089344;28;20040;-50
2022/09/13 02:05:38;;;;;;;36.03;29.58;;;17.00;99.90;;;;;;5090833;27;20047;-49
2022/09/13 02:08:13;;;;;;;28.90;25.80;;;16.90;99.90;;;;;;5093217;28;20035;-49
2022/09/13 02:11:03;;;;;;;31.52;27.17;;;16.90;99.90;;;;;;5076016;28;20113;-50
2022/09/13 02:13:35;;;;;;;34.55;28.98;;;16.90;99.90;;;;;;5093014;28;20056;-49
2022/09/13 02:16:10;;;;;;;37.35;30.67;;;17.00;99.90;;;;;;5092834;27;20562;-50
2022/09/13 02:18:40;;;;;;;34.30;28.65;;;16.90;99.90;;;;;;5095083;28;20047;-49
2022/09/13 02:21:28;;;;;;;34.03;28.60;;;16.90;99.90;;;;;;5094298;28;20044;-49
2022/09/13 02:24:04;;;;;;;35.47;29.30;;;16.90;99.90;;;;;;5094468;28;20054;-47
2022/09/13 02:26:33;;;;;;;39.53;31.85;;;16.90;99.90;;;;;;5075795;28;20468;-46
2022/09/13 02:29:06;;;;;;;39.30;31.42;;;17.00;99.90;;;;;;5091741;28;20684;-50
2022/09/13 02:32:21;;;;;;;41.47;31.40;;;17.00;99.90;;;;;;5089429;28;20086;-48
2022/09/13 02:35:01;;;;;;;40.45;31.92;;;17.00;99.90;;;;;;5072794;28;20035;-49
2022/09/13 02:37:31;;;;;;;37.25;31.02;;;17.00;99.90;;;;;;5106747;27;20067;-45
2022/09/13 02:40:04;;;;;;;37.58;32.63;;;17.00;99.90;;;;;;5090958;28;20596;-48
2022/09/13 02:42:40;;;;;;;37.22;31.70;;;17.00;99.90;;;;;;5094526;28;20035;-49
2022/09/13 02:45:08;;;;;;;36.78;31.85;;;17.00;99.90;;;;;;5076978;28;20544;-49
2022/09/13 02:47:41;;;;;;;38.35;30.48;;;17.00;99.90;;;;;;5074788;28;20050;-58
2022/09/13 02:50:32;;;;;;;35.60;31.73;;;17.00;99.90;;;;;;5093473;28;20811;-58
2022/09/13 02:53:20;;;;;;;37.53;30.52;;;17.10;99.90;;;;;;5094074;28;20116;-57
2022/09/13 02:56:13;;;;;;;33.58;29.92;;;17.10;99.90;;;;;;5089236;28;20525;-57
2022/09/13 02:59:10;;;;;;;36.95;31.17;;;17.10;99.90;;;;;;5094463;27;20498;-58
2022/09/13 03:01:38;;;;;;;34.10;30.13;;;17.10;99.90;;;;;;5091723;28;20097;-59
2022/09/13 03:04:05;;;;;;;35.30;28.92;;;17.10;99.90;;;;;;5092455;28;20039;-59
2022/09/13 03:06:31;;;;;;;36.60;30.65;;;17.10;99.90;;;;;;5088985;28;20049;-59
2022/09/13 03:09:02;;;;;;;36.03;31.63;;;17.10;99.90;;;;;;5092631;28;20088;-50
2022/09/13 03:12:06;;;;;;;38.20;30.50;;;17.20;99.90;;;;;;5090584;28;20139;-60
2022/09/13 03:14:35;;;;;;;37.42;32.35;;;17.10;99.90;;;;;;5093249;28;20047;-48
2022/09/13 03:17:09;;;;;;;36.40;31.60;;;17.10;99.90;;;;;;5076085;28;20118;-50
2022/09/13 03:20:09;;;;;;;35.63;30.42;;;17.10;99.90;;;;;;5089758;28;20123;-59
2022/09/13 03:23:13;;;;;;;37.13;32.10;;;17.10;99.90;;;;;;5092114;28;20047;-58
2022/09/13 03:26:13;;;;;;;41.97;33.35;;;17.20;99.90;;;;;;5088736;28;20124;-58
2022/09/13 03:29:10;;;;;;;37.35;32.58;;;17.10;99.90;;;;;;5092965;28;20513;-58
2022/09/13 03:32:02;;;;;;;39.70;33.05;;;17.20;99.90;;;;;;5092039;28;20676;-50
2022/09/13 03:34:41;;;;;;;34.72;30.63;;;17.20;99.90;;;;;;5076694;28;20074;-49
2022/09/13 03:37:32;;;;;;;36.05;31.17;;;17.20;99.90;;;;;;5089700;28;20799;-47
2022/09/13 03:40:06;;;;;;;39.22;32.83;;;17.20;99.90;;;;;;5093908;28;20047;-48
2022/09/13 03:42:47;;;;;;;37.47;31.63;;;17.20;99.90;;;;;;5058178;28;20040;-48
2022/09/13 03:45:16;;;;;;;36.97;30.40;;;17.20;99.90;;;;;;5094309;28;20168;-58
2022/09/13 03:47:47;;;;;;;38.20;31.77;;;17.20;99.90;;;;;;5107412;27;20422;-58
2022/09/13 03:50:22;;;;;;;33.60;30.02;;;17.20;99.90;;;;;;5056209;28;20406;-58
2022/09/13 03:52:54;;;;;;;37.72;29.90;;;17.30;99.90;;;;;;5107462;28;20092;-59
2022/09/13 03:55:21;;;;;;;40.08;30.27;;;17.20;99.90;;;;;;5095996;28;20526;-58
2022/09/13 03:57:47;;;;;;;30.02;26.85;;;17.20;99.90;;;;;;5091344;28;20047;-58
2022/09/13 04:00:14;;;;;;;33.15;26.88;;;17.20;99.90;;;;;;5094402;28;20122;-58
2022/09/13 04:02:40;;;;;;;34.15;27.65;;;17.30;99.90;;;;;;5094377;28;20813;-58
2022/09/13 04:05:07;;;;;;;32.25;26.13;;;17.30;99.90;;;;;;5091872;28;20570;-58
2022/09/13 04:07:33;;;;;;;30.98;25.45;;;17.30;99.90;;;;;;5093930;28;20396;-61
2022/09/13 04:09:59;;;;;;;30.65;26.27;;;17.30;99.90;;;;;;5093634;27;20040;-49
2022/09/13 04:12:27;;;;;;;33.15;26.77;;;17.30;99.90;;;;;;5073836;28;20059;-48
2022/09/13 04:14:53;;;;;;;29.75;26.38;;;17.30;99.90;;;;;;5096367;28;20126;-59
2022/09/13 04:17:19;;;;;;;30.92;25.00;;;17.30;99.90;;;;;;5093989;28;20051;-60
2022/09/13 04:19:45;;;;;;;30.27;25.48;;;17.40;99.90;;;;;;5097347;28;20369;-59
2022/09/13 04:22:12;;;;;;;36.38;26.10;;;17.30;99.90;;;;;;5096183;28;20040;-58
2022/09/13 04:24:38;;;;;;;29.25;25.17;;;17.30;99.90;;;;;;5063638;28;20105;-59
2022/09/13 04:27:05;;;;;;;26.30;23.52;;;17.40;99.90;;;;;;5090752;28;20119;-58
2022/09/13 04:29:32;;;;;;;34.40;24.17;;;17.40;99.90;;;;;;5093594;28;20065;-49
2022/09/13 04:31:58;;;;;;;31.33;24.73;;;17.40;99.90;;;;;;5080077;28;20039;-58
2022/09/13 04:34:24;;;;;;;30.17;24.58;;;17.40;99.90;;;;;;5097274;28;20461;-58
2022/09/13 04:36:51;;;;;;;30.58;24.38;;;17.40;99.90;;;;;;5078446;28;20044;-59
2022/09/13 04:39:19;;;;;;;28.20;22.73;;;17.40;99.90;;;;;;5096433;28;20043;-59
2022/09/13 04:41:46;;;;;;;31.95;24.33;;;17.40;99.90;;;;;;5089671;28;20044;-59
2022/09/13 04:44:14;;;;;;;27.30;22.80;;;17.40;99.90;;;;;;5097009;27;20039;-59
2022/09/13 04:46:41;;;;;;;26.75;23.88;;;17.40;99.90;;;;;;5095986;28;20456;-59
2022/09/13 04:49:10;;;;;;;29.33;23.05;;;17.50;99.90;;;;;;5096444;28;20126;-46
2022/09/13 04:51:36;;;;;;;32.38;23.95;;;17.50;99.90;;;;;;5090888;28;20038;-59
2022/09/13 04:54:02;;;;;;;29.90;24.17;;;17.50;99.90;;;;;;5095419;28;20147;-45
2022/09/13 04:56:28;;;;;;;30.33;23.25;;;17.50;99.90;;;;;;5097661;28;20036;-46
2022/09/13 04:58:55;;;;;;;26.45;22.83;;;17.50;99.90;;;;;;5062822;28;20498;-47
2022/09/13 05:01:22;;;;;;;31.75;24.08;;;17.50;99.90;;;;;;5061688;28;20127;-49
2022/09/13 05:03:50;;;;;;;26.35;22.85;;;17.50;99.90;;;;;;5096155;28;20047;-59
2022/09/13 05:06:18;;;;;;;29.88;23.60;;;17.50;99.90;;;;;;5091995;28;20047;-59
2022/09/13 05:08:51;;;;;;;30.35;24.13;;;17.50;99.90;;;;;;5087705;28;20047;-58
2022/09/13 05:11:17;;;;;;;29.02;24.48;;;17.50;99.90;;;;;;5091980;27;20067;-59
2022/09/13 05:13:43;;;;;;;27.27;22.45;;;17.50;99.90;;;;;;5092532;28;20075;-58
2022/09/13 05:16:09;;;;;;;26.63;22.00;;;17.50;99.90;;;;;;5091420;28;20093;-44
2022/09/13 05:18:36;;;;;;;30.20;22.55;;;17.50;99.90;;;;;;5094600;28;20043;-54
2022/09/13 05:21:03;;;;;;;27.40;22.85;;;17.50;99.90;;;;;;5092447;28;20040;-53
2022/09/13 05:23:31;;;;;;;31.25;23.23;;;17.50;99.90;;;;;;5095148;27;20366;-54
2022/09/13 05:25:59;;;;;;;26.52;22.50;;;17.60;99.90;;;;;;5094937;28;20112;-44
2022/09/13 05:28:32;;;;;;;26.63;22.48;;;17.60;99.90;;;;;;5088796;28;20035;-46
2022/09/13 05:31:02;;;;;;;24.92;21.33;;;17.60;99.90;;;;;;5090636;27;20092;-45
2022/09/13 05:33:30;;;;;;;30.33;21.55;;;17.60;99.90;;;;;;5093003;27;20399;-52
2022/09/13 05:35:57;;;;;;;26.27;21.77;;;17.60;99.90;;;;;;5078506;28;20055;-53
2022/09/13 05:38:23;;;;;;;25.13;22.02;;;17.70;99.90;;;;;;5091369;28;20284;-53
2022/09/13 05:40:55;;;;;;;23.58;21.00;;;17.70;99.90;;;;;;5096727;27;20412;-46
2022/09/13 05:43:26;;;;;;;21.80;19.20;;;17.70;99.90;;;;;;5094866;27;20106;-53
2022/09/13 05:46:06;;;;;;;23.25;18.48;;;17.70;99.90;;;;;;5098905;28;20437;-53
2022/09/13 05:48:33;;;;;;;25.30;19.60;;;17.70;99.90;;;;;;5093420;28;20474;-50
2022/09/13 05:51:17;;;;;;;23.15;19.00;;;17.70;99.90;;;;;;5094187;28;20055;-51
2022/09/13 05:53:45;;;;;;;20.80;18.70;;;17.70;99.90;;;;;;5090648;28;20098;-44
2022/09/13 05:56:23;;;;;;;21.38;17.95;;;17.70;99.90;;;;;;5095740;28;20507;-44
2022/09/13 05:58:50;;;;;;;22.50;18.27;;;17.70;99.90;;;;;;5110957;27;20127;-43
2022/09/13 06:01:19;;;;;;;18.48;16.50;;;17.70;99.90;;;;;;5097420;28;20066;-47
2022/09/13 06:03:50;;;;;;;19.25;17.20;;;17.80;99.90;;;;;;5075747;28;20130;-47
2022/09/13 06:06:17;;;;;;;20.90;17.67;;;17.80;99.90;;;;;;5095305;27;20047;-45
2022/09/13 06:08:43;;;;;;;18.35;16.35;;;17.80;99.90;;;;;;5094192;28;20703;-46
2022/09/13 06:11:11;;;;;;;21.50;16.90;;;17.80;99.90;;;;;;5091568;28;20058;-45
2022/09/13 06:13:38;;;;;;;17.95;14.95;;;17.80;99.90;;;;;;5093887;28;20048;-44
2022/09/13 06:16:08;;;;;;;15.98;13.45;;;17.80;99.90;;;;;;5094219;28;20857;-47
2022/09/13 06:18:35;;;;;;;14.18;11.30;;;17.80;99.90;;;;;;5095563;27;20312;-45
2022/09/13 06:21:07;;;;;;;11.73;10.02;;;17.80;99.90;;;;;;5094265;28;20075;-53
2022/09/13 06:23:34;;;;;;;11.55;8.48;;;17.80;99.90;;;;;;5095319;28;20390;-53
2022/09/13 06:26:05;;;;;;;11.93;6.38;;;17.80;99.90;;;;;;5060254;28;20051;-51
2022/09/13 06:28:31;;;;;;;9.18;6.40;;;17.70;99.90;;;;;;5076353;28;20622;-53
2022/09/13 06:31:07;;;;;;;10.00;6.15;;;17.70;99.90;;;;;;5077162;27;20122;-54
2022/09/13 06:33:34;;;;;;;10.45;6.05;;;17.70;99.90;;;;;;5095774;28;20462;-54
2022/09/13 06:36:11;;;;;;;7.57;5.80;;;17.70;99.90;;;;;;5094023;28;20130;-54
2022/09/13 06:38:38;;;;;;;10.88;6.15;;;17.70;99.90;;;;;;5090836;28;20036;-55
2022/09/13 06:41:07;;;;;;;9.88;5.72;;;17.70;99.90;;;;;;5076141;28;20044;-53
2022/09/13 06:43:33;;;;;;;7.15;4.82;;;17.70;99.90;;;;;;5059418;28;20071;-59
2022/09/13 06:46:11;;;;;;;7.68;5.15;;;17.70;99.90;;;;;;5098027;27;20054;-54
2022/09/13 06:48:39;;;;;;;10.55;5.22;;;17.70;99.90;;;;;;5111440;27;20081;-56
2022/09/13 06:51:14;;;;;;;8.73;4.82;;;17.60;99.90;;;;;;5094618;28;20134;-57
2022/09/13 06:53:42;;;;;;;6.63;4.50;;;17.70;99.90;;;;;;5062216;28;20150;-61
2022/09/13 06:56:12;;;;;;;7.60;4.40;;;17.60;99.90;;;;;;5093691;28;20036;-48
2022/09/13 06:58:40;;;;;;;8.02;4.40;;;17.60;99.90;;;;;;5093290;28;20100;-46
2022/09/13 07:01:13;;;;;;;6.72;4.38;;;17.50;99.90;;;;;;5093705;28;20640;-49
2022/09/13 07:03:45;;;;;;;7.63;4.43;;;17.50;99.90;;;;;;5071158;28;20051;-47
2022/09/13 07:06:17;;;;;;;5.90;4.53;;;17.50;99.90;;;;;;5089955;28;20449;-47
2022/09/13 07:08:44;;;;;;;5.30;3.75;;;17.60;99.90;;;;;;5094732;28;20418;-47
2022/09/13 07:11:12;;;;;;;7.47;4.20;;;17.60;99.90;;;;;;5072349;28;20380;-50
2022/09/13 07:13:38;;;;;;;10.95;4.38;;;17.70;99.90;;;;;;5092522;28;20047;-48
2022/09/13 07:16:08;;;;;;;7.95;4.03;;;17.80;99.90;;;;;;5089924;28;20047;-49
2022/09/13 07:18:35;;;;;;;9.35;3.60;;;17.80;99.90;;;;;;5109992;27;20180;-61
2022/09/13 07:21:11;;;;;;;8.40;3.45;;;17.90;99.90;;;;;;5091670;28;20078;-61
2022/09/13 07:23:38;;;;;;;7.13;3.78;;;17.90;99.90;;;;;;5088726;28;20633;-60
2022/09/13 07:26:06;;;;;;;7.07;3.47;;;18.00;99.90;;;;;;5095302;28;20493;-60
2022/09/13 07:28:38;;;;;;;7.20;3.08;;;18.00;99.90;;;;;;5094985;28;20043;-61
2022/09/13 07:31:15;;;;;;;8.30;3.58;;;18.00;99.90;;;;;;5078486;28;20628;-61
2022/09/13 07:33:42;;;;;;;8.07;3.40;;;18.10;99.90;;;;;;5094362;28;20046;-61
2022/09/13 07:36:10;;;;;;;6.28;3.17;;;18.20;99.90;;;;;;5081535;28;20471;-61
2022/09/13 07:38:44;;;;;;;7.35;3.25;;;18.20;99.90;;;;;;5096036;28;20051;-61
2022/09/13 07:41:16;;;;;;;8.23;3.70;;;18.30;99.90;;;;;;5093000;28;20504;-61
2022/09/13 07:43:43;;;;;;;7.80;3.50;;;18.40;99.90;;;;;;5099637;28;20769;-61
2022/09/13 07:46:12;;;;;;;8.27;3.13;;;18.50;99.90;;;;;;5100470;28;20496;-61
2022/09/13 07:48:40;;;;;;;10.73;3.30;;;18.60;99.90;;;;;;5097750;27;20131;-62
2022/09/13 07:51:10;;;;;;;6.70;2.67;;;18.60;99.90;;;;;;5079350;28;20051;-61
2022/09/13 07:53:38;;;;;;;6.20;3.63;;;18.70;99.90;;;;;;5095364;27;20042;-61
2022/09/13 07:56:11;;;;;;;5.68;3.13;;;19.00;99.90;;;;;;5092464;28;20051;-60
2022/09/13 07:58:39;;;;;;;10.00;2.60;;;19.40;99.90;;;;;;5095970;28;20047;-61
2022/09/13 08:01:06;;;;;;;5.20;2.20;;;20.00;99.90;;;;;;5097001;27;20315;-60
2022/09/13 08:03:34;;;;;;;7.82;2.20;;;20.20;99.90;;;;;;5101716;27;20043;-60
2022/09/13 08:06:01;;;;;;;6.68;2.50;;;20.40;99.90;;;;;;5099526;28;20047;-58
2022/09/13 08:08:28;;;;;;;8.40;4.88;;;20.30;99.90;;;;;;5078903;28;20044;-59
2022/09/13 08:10:55;;;;;;;7.07;1.75;;;20.30;99.90;;;;;;5096380;27;20554;-58
2022/09/13 08:13:21;;;;;;;8.35;1.65;;;20.40;99.90;;;;;;5080221;28;20394;-58
2022/09/13 08:15:48;;;;;;;9.80;2.40;;;20.40;99.90;;;;;;5060223;28;20079;-58
2022/09/13 08:18:18;;;;;;;4.85;1.25;;;20.70;99.90;;;;;;5082205;28;20048;-58
2022/09/13 08:20:44;;;;;;;6.45;1.80;;;20.60;99.90;;;;;;5079943;28;20244;-47
2022/09/13 08:23:12;;;;;;;6.50;1.40;;;20.50;99.90;;;;;;5079559;28;20101;-44
2022/09/13 08:25:39;;;;;;;5.35;1.10;;;20.40;99.90;;;;;;5078914;28;20052;-44
2022/09/13 08:28:07;;;;;;;4.15;1.23;;;20.10;99.90;;;;;;5079198;28;20068;-46
2022/09/13 08:30:35;;;;;;;6.53;2.13;;;20.10;99.90;;;;;;5077454;28;20048;-48
2022/09/13 08:33:04;;;;;;;6.45;1.23;;;20.00;99.90;;;;;;5074707;28;20048;-49
2022/09/13 08:35:32;;;;;;;5.25;1.33;;;20.10;99.90;;;;;;5079186;28;20390;-47
2022/09/13 08:37:59;;;;;;;4.68;1.17;;;20.10;99.90;;;;;;5080743;28;20047;-61
2022/09/13 08:40:29;;;;;;;5.65;1.08;;;20.20;99.90;;;;;;5079687;28;20036;-60
2022/09/13 08:43:34;;;;;;;8.07;4.45;;;20.40;99.90;;;;;;5061195;28;20057;-60
2022/09/13 08:46:07;;;;;;;7.32;4.65;;;20.50;99.90;;;;;;5039779;28;20040;-60
2022/09/13 08:48:43;;;;;;;4.05;1.25;;;21.50;99.90;;;;;;5057334;28;20054;-60
2022/09/13 08:51:35;;;;;;;4.65;1.17;;;21.70;99.90;;;;;;5077266;28;20410;-60
2022/09/13 08:54:02;;;;;;;9.90;7.82;;;21.70;99.90;;;;;;5076920;28;20130;-47
2022/09/13 08:56:37;;;;;;;5.07;1.10;;;21.50;99.90;;;;;;5094802;27;21022;-49
2022/09/13 08:59:37;;;;;;;4.45;1.00;;;21.50;99.90;;;;;;5092887;27;20123;-47
2022/09/13 09:02:41;;;;;;;6.60;2.53;;;21.40;99.90;;;;;;5077532;28;20047;-60
2022/09/13 09:05:31;;;;;;;6.43;1.00;;;22.10;99.90;;;;;;5075886;28;20422;-58
2022/09/13 09:08:26;;;;;;;5.10;1.50;;;23.00;99.90;;;;;;5077805;28;20095;-59
2022/09/13 09:10:55;;;;;;;4.15;0.98;;;24.10;99.90;;;;;;5077582;28;20659;-59
2022/09/13 09:13:37;;;;;;;5.28;1.23;;;24.80;99.90;;;;;;5097058;28;20054;-59
2022/09/13 09:16:26;;;;;;;4.45;1.40;;;24.40;99.90;;;;;;5094807;28;20048;-58
2022/09/13 09:18:55;;;;;;;4.22;1.25;;;24.20;99.90;;;;;;5098188;28;20514;-60
2022/09/13 09:21:21;;;;;;;81.05;73.57;;;24.40;99.90;;;;;;5074160;28;20040;-49
2022/09/13 09:23:53;;;;;;;5.28;1.35;;;24.10;99.90;;;;;;5095999;27;20591;-47
2022/09/13 09:26:29;;;;;;;4.32;2.03;;;23.30;99.90;;;;;;5100058;28;20040;-46
2022/09/13 09:29:04;;;;;;;4.15;1.13;;;23.30;99.90;;;;;;5095210;28;20458;-45
2022/09/13 09:31:49;;;;;;;5.65;3.67;;;23.40;99.90;;;;;;5096987;28;20048;-46
2022/09/13 09:34:44;;;;;;;3.80;0.60;;;23.90;99.90;;;;;;5094832;28;20055;-47
2022/09/13 09:37:25;;;;;;;7.13;1.25;;;24.50;99.90;;;;;;5115186;27;20494;-49
2022/09/13 09:40:02;;;;;;;3.55;0.98;;;25.20;99.90;;;;;;5077859;28;20054;-47
2022/09/13 09:42:36;;;;;;;6.15;2.03;;;25.60;99.90;;;;;;5099846;27;20043;-55
2022/09/13 09:45:17;;;;;;;3.08;0.70;;;25.70;99.90;;;;;;5096938;28;20050;-45
2022/09/13 09:47:49;;;;;;;2.20;0.60;;;26.40;99.90;;;;;;5096624;27;20128;-44
2022/09/13 09:50:22;;;;;;;4.05;0.73;;;26.40;99.90;;;;;;5097510;27;20075;-43
2022/09/13 09:53:05;;;;;;;3.08;0.68;;;26.60;99.90;;;;;;5095938;28;20035;-46
2022/09/13 09:55:53;;;;;;;3.33;0.60;;;26.60;98.90;;;;;;5081072;28;20040;-45
2022/09/13 09:58:41;;;;;;;4.60;2.13;;;26.50;96.60;;;;;;5097080;28;20573;-45
2022/09/13 10:01:26;;;;;;;5.07;2.47;;;26.60;95.40;;;;;;5096167;27;20495;-48
2022/09/13 10:04:18;;;;;;;3.58;1.20;;;26.90;95.20;;;;;;5094959;28;20047;-55
2022/09/13 10:06:45;;;;;;;2.53;0.82;;;27.30;92.40;;;;;;5086050;28;20633;-56
2022/09/13 10:09:18;;;;;;;9.35;1.80;;;27.30;97.10;;;;;;5098290;28;20051;-59
2022/09/13 10:11:56;;;;;;;5.15;0.70;;;27.70;95.80;;;;;;5078976;28;20415;-59
2022/09/13 10:14:34;;;;;;;4.07;1.33;;;27.90;85.40;;;;;;5080230;27;20472;-59
2022/09/13 10:17:15;;;;;;;2.50;1.08;;;28.30;88.10;;;;;;5098829;27;20050;-59
2022/09/13 10:19:51;;;;;;;;;;;28.60;85.50;;;;;;5078870;28;20412;-59
2022/09/13 10:22:17;;;;;;;3.90;0.80;;;28.60;68.80;;;;;;5075006;28;19954;-59
2022/09/13 10:24:43;;;;;;;3.53;0.65;;;28.90;78.20;;;;;;5078960;28;20107;-59
2022/09/13 10:27:24;;;;;;;5.35;3.58;;;28.70;77.10;;;;;;5056611;28;20055;-60
2022/09/13 10:29:55;;;;;;;2.55;0.95;;;28.80;67.40;;;;;;5095215;27;20092;-43
2022/09/13 10:32:21;;;;;;;;;;;28.80;68.00;;;;;;5094095;28;20056;-44
2022/09/13 10:34:49;;;;;;;4.90;0.82;;;29.00;64.10;;;;;;5094063;28;19972;-60
2022/09/13 10:37:21;;;;;;;5.55;1.10;;;28.70;66.70;;;;;;5093414;27;20548;-60
2022/09/13 10:39:55;;;;;;;4.35;1.08;;;28.40;67.70;;;;;;5092552;28;20071;-60
2022/09/13 10:42:25;;;;;;;10.95;8.50;;;27.30;71.90;;;;;;5092722;28;20043;-60
2022/09/13 10:45:01;;;;;;;6.07;1.00;;;26.50;86.70;;;;;;5092428;28;20535;-59
2022/09/13 10:47:30;;;;;;;4.65;2.22;;;25.90;90.30;;;;;;5093755;27;20039;-59
2022/09/13 10:49:58;;;;;;;4.25;1.00;;;26.50;91.20;;;;;;5092449;27;20052;-58
2022/09/13 10:52:30;;;;;;;2.85;0.73;;;26.50;86.70;;;;;;5095641;28;20046;-45
2022/09/13 10:55:19;;;;;;;6.03;2.55;;;27.00;80.80;;;;;;5074371;28;20551;-44
2022/09/13 10:57:46;;;;;;;6.30;2.25;;;27.70;74.80;;;;;;5088541;27;20055;-44
2022/09/13 11:00:52;;;;;;;4.63;1.45;;;28.30;71.30;;;;;;5091256;27;20047;-46
2022/09/13 11:03:33;;;;;;;4.63;2.65;;;28.30;66.90;;;;;;5025086;28;20062;-41
2022/09/13 11:06:03;;;;;;;7.70;4.93;;;27.90;63.10;;;;;;5071510;28;20055;-44
2022/09/13 11:08:42;;;;;;;3.03;0.60;;;27.20;70.10;;;;;;5093748;27;20050;-43
2022/09/13 11:11:26;;;;;;;4.53;0.95;;;27.50;67.40;;;;;;5088461;28;20432;-43
2022/09/13 11:14:34;;;;;;;5.28;2.67;;;27.80;66.50;;;;;;5092489;28;20055;-47
2022/09/13 11:17:08;;;;;;;7.57;4.30;;;28.90;64.00;;;;;;5108475;27;20884;-42
2022/09/13 11:19:43;;;;;;;9.38;8.27;;;29.10;61.60;;;;;;5099742;28;20577;-58
2022/09/13 11:22:31;;;;;;;3.17;0.75;;;28.90;58.60;;;;;;5098139;27;20112;-58
2022/09/13 11:25:36;;;;;;;4.80;0.77;;;29.00;58.20;;;;;;5097330;27;20401;-44
2022/09/13 11:28:25;;;;;;;5.30;2.03;;;28.80;56.10;;;;;;5096733;27;20722;-42
2022/09/13 11:31:01;;;;;;;8.30;6.32;;;28.90;60.20;;;;;;5098486;28;20075;-44
2022/09/13 11:33:52;;;;;;;3.92;1.10;;;29.20;57.00;;;;;;5079753;28;20050;-42
2022/09/13 11:36:27;;;;;;;5.55;1.85;;;28.90;56.00;;;;;;5096949;28;20376;-44
2022/09/13 11:39:16;;;;;;;7.68;1.55;;;28.70;59.10;;;;;;5098267;27;20104;-45
2022/09/13 11:42:00;;;;;;;6.40;1.60;;;28.70;58.30;;;;;;5096643;28;20506;-46
2022/09/13 11:44:48;;;;;;;4.00;0.95;;;29.00;56.50;;;;;;5096259;27;20051;-42
2022/09/13 11:47:48;;;;;;;5.93;3.72;;;29.00;54.20;;;;;;5098299;28;20051;-45
2022/09/13 11:50:32;;;;;;;10.90;8.43;;;29.00;55.80;;;;;;5102642;27;20050;-43
2022/09/13 11:53:33;;;;;;;7.60;1.95;;;29.20;56.60;;;;;;5099378;27;20043;-45
2022/09/13 11:56:13;;;;;;;5.32;0.73;;;29.00;54.80;;;;;;5099940;28;20075;-43
2022/09/13 11:59:02;;;;;;;4.75;0.70;;;28.90;56.50;;;;;;5077611;28;20069;-41
2022/09/13 12:01:37;;;;;;;4.53;0.77;;;28.20;56.60;;;;;;5100359;27;20051;-42
2022/09/13 12:04:12;;;;;;;5.20;1.08;;;28.10;56.90;;;;;;5101933;28;20502;-43
2022/09/13 12:06:44;;;;;;;2.15;0.70;;;28.40;56.30;;;;;;5100366;28;20392;-41
2022/09/13 12:09:18;;;;;;;19.17;16.70;;;28.90;55.90;;;;;;5101273;28;20043;-47
2022/09/13 12:11:51;;;;;;;7.03;1.15;;;29.30;54.80;;;;;;5100443;27;20169;-43
2022/09/13 12:14:22;;;;;;;7.60;5.10;;;29.20;54.80;;;;;;5100416;27;20051;-43
2022/09/13 12:16:58;;;;;;;6.72;3.28;;;28.60;55.20;;;;;;5100294;28;20051;-47
2022/09/13 12:19:46;;;;;;;8.48;4.38;;;28.40;57.40;;;;;;5097882;27;20596;-45
2022/09/13 12:22:14;;;;;;;8.07;3.80;;;28.40;59.30;;;;;;5100347;28;20466;-43
2022/09/13 12:24:45;;;;;;;8.27;6.03;;;28.10;59.90;;;;;;5097786;27;20168;-43
2022/09/13 12:27:33;;;;;;;5.97;1.70;;;28.70;60.90;;;;;;5081257;28;20055;-48
2022/09/13 12:30:15;;;;;;;4.65;0.90;;;28.50;60.10;;;;;;5094338;28;20506;-44
2022/09/13 12:32:46;;;;;;;7.22;1.73;;;28.60;59.00;;;;;;5095761;28;20051;-42
2022/09/13 12:35:21;;;;;;;5.90;2.85;;;28.80;59.10;;;;;;5096528;27;20079;-44
2022/09/13 12:38:12;;;;;;;30.27;27.13;;;29.00;57.30;;;;;;5076429;27;20517;-44
2022/09/13 12:40:49;;;;;;;;;;;29.40;58.40;;;;;;5078993;28;20055;-43
2022/09/13 12:44:03;;;;;;;6.82;1.65;;;29.00;56.90;;;;;;5115681;27;19970;-43
2022/09/13 12:46:37;;;;;;;6.80;1.58;;;29.00;55.20;;;;;;5085435;28;20128;-44
2022/09/13 12:49:14;;;;;;;4.38;1.35;;;29.70;53.80;;;;;;5093654;28;20521;-58
2022/09/13 12:52:08;;;;;;;6.85;2.75;;;29.80;54.60;;;;;;5058621;28;20088;-57
2022/09/13 12:55:12;;;;;;;5.93;2.85;;;29.50;52.50;;;;;;5097264;28;20521;-57
2022/09/13 12:58:05;;;;;;;6.80;3.92;;;29.70;51.50;;;;;;5084857;28;20040;-59
2022/09/13 13:00:45;;;;;;;6.60;2.53;;;29.70;51.40;;;;;;5069724;27;20358;-58
2022/09/13 13:03:18;;;;;;;7.57;3.30;;;29.70;51.40;;;;;;5089266;27;20039;-57
2022/09/13 13:05:55;;;;;;;3.35;0.70;;;29.70;50.70;;;;;;5092793;27;20498;-44
2022/09/13 13:08:21;;;;;;;8.07;4.22;;;29.00;51.20;;;;;;5072245;28;20050;-42
2022/09/13 13:11:06;;;;;;;5.82;1.13;;;29.30;52.60;;;;;;5090114;27;20057;-44
2022/09/13 13:13:43;;;;;;;7.75;3.88;;;29.30;52.30;;;;;;5088268;27;20483;-41
2022/09/13 13:16:32;;;;;;;7.03;1.52;;;29.20;52.50;;;;;;5086231;27;20040;-41
2022/09/13 13:19:01;;;;;;;6.28;1.17;;;29.40;52.40;;;;;;5088393;27;20051;-47